createdAt,value
2022-08-22T04:15:36.022Z,8.27
2022-08-22T04:18:25.360Z,8.68
2022-08-22T04:21:26.091Z,7.45
2022-08-22T04:24:31.921Z,8.15
2022-08-22T04:27:07.380Z,7.45
2022-08-22T04:29:43.973Z,7.13
2022-08-22T04:32:19.411Z,7.47
2022-08-22T04:34:51.793Z,6.13
2022-08-22T04:37:26.341Z,7.22
2022-08-22T04:40:00.923Z,6.88
2022-08-22T04:42:34.569Z,6.88
2022-08-22T04:45:10.686Z,6.88
2022-08-22T04:47:43.800Z,7.13
2022-08-22T04:50:21.282Z,6.53
2022-08-22T04:53:15.094Z,6.32
2022-08-22T04:55:53.616Z,6.55
2022-08-22T04:58:34.375Z,6.90
2022-08-22T05:01:12.090Z,6.82
2022-08-22T05:03:47.046Z,6.72
2022-08-22T05:06:19.287Z,6.22
2022-08-22T05:08:54.010Z,6.75
2022-08-22T05:11:25.169Z,6.38
2022-08-22T05:13:57.888Z,5.93
2022-08-22T05:16:33.126Z,7.00
2022-08-22T05:19:06.702Z,6.82
2022-08-22T05:21:39.113Z,5.78
2022-08-22T05:24:11.999Z,5.57
2022-08-22T05:26:44.584Z,5.72
2022-08-22T05:29:15.942Z,5.28
2022-08-22T05:31:49.886Z,5.15
2022-08-22T05:34:24.128Z,5.72
2022-08-22T05:36:56.841Z,5.03
2022-08-22T05:39:27.912Z,5.03
2022-08-22T05:42:03.403Z,4.95
2022-08-22T05:44:34.382Z,5.43
2022-08-22T05:47:06.544Z,6.72
2022-08-22T05:49:41.576Z,5.18
2022-08-22T05:52:22.568Z,5.05
2022-08-22T05:54:57.315Z,5.03
2022-08-22T05:57:31.427Z,4.90
2022-08-22T06:00:04.698Z,5.45
2022-08-22T06:02:53.635Z,4.53
2022-08-22T06:05:28.744Z,4.72
2022-08-22T06:08:04.552Z,4.38
2022-08-22T06:10:41.264Z,4.32
2022-08-22T06:13:16.435Z,4.55
2022-08-22T06:15:57.870Z,3.78
2022-08-22T06:18:28.758Z,4.57
2022-08-22T06:21:02.129Z,4.25
2022-08-22T06:23:35.178Z,4.55
2022-08-22T06:26:05.497Z,4.63
2022-08-22T06:28:38.536Z,4.03
2022-08-22T06:31:28.015Z,4.32
2022-08-22T06:34:01.045Z,4.10
2022-08-22T06:36:33.286Z,3.58
2022-08-22T06:39:11.371Z,4.40
2022-08-22T06:41:44.519Z,3.95
2022-08-22T06:44:18.809Z,4.22
2022-08-22T06:46:50.307Z,3.75
2022-08-22T06:49:20.495Z,3.95
2022-08-22T06:51:52.251Z,3.33
2022-08-22T06:54:25.893Z,3.65
2022-08-22T06:56:56.538Z,4.15
2022-08-22T06:59:28.912Z,3.72
2022-08-22T07:02:04.234Z,3.90
2022-08-22T07:04:33.244Z,3.58
2022-08-22T07:07:03.748Z,3.78
2022-08-22T07:09:35.896Z,4.10
2022-08-22T07:12:12.207Z,3.90
2022-08-22T07:14:42.977Z,4.43
2022-08-22T07:17:18.723Z,3.90
2022-08-22T07:19:55.392Z,3.72
2022-08-22T07:22:27.842Z,3.97
2022-08-22T07:25:00.647Z,3.60
2022-08-22T07:27:42.414Z,3.63
2022-08-22T07:30:14.093Z,4.18
2022-08-22T07:32:51.544Z,3.42
2022-08-22T07:35:23.245Z,4.32
2022-08-22T07:38:05.330Z,3.08
2022-08-22T07:40:41.571Z,3.45
2022-08-22T07:43:29.793Z,3.40
2022-08-22T07:46:01.621Z,3.33
2022-08-22T07:48:38.296Z,2.67
2022-08-22T07:51:19.450Z,2.72
2022-08-22T07:54:00.706Z,3.30
2022-08-22T07:56:33.274Z,3.63
2022-08-22T07:59:13.073Z,3.33
2022-08-22T08:01:46.953Z,2.55
2022-08-22T08:04:18.960Z,2.60
2022-08-22T08:06:49.450Z,3.15
2022-08-22T08:09:20.562Z,2.75
2022-08-22T08:11:52.339Z,2.63
2022-08-22T08:14:23.532Z,2.70
2022-08-22T08:17:02.559Z,3.08
2022-08-22T08:19:32.943Z,2.85
2022-08-22T08:22:01.642Z,2.60
2022-08-22T08:24:39.977Z,2.70
2022-08-22T08:27:33.503Z,3.42
2022-08-22T08:30:07.062Z,2.13
2022-08-22T08:32:39.599Z,2.88
2022-08-22T08:35:23.488Z,2.58
2022-08-22T08:38:00.134Z,2.50
2022-08-22T08:40:51.674Z,2.47
2022-08-22T08:43:30.077Z,2.50
2022-08-22T08:46:24.941Z,2.75
2022-08-22T08:49:26.328Z,3.03
2022-08-22T08:52:44.027Z,2.25
2022-08-22T08:58:32.048Z,2.33
2022-08-22T09:01:14.122Z,2.05
2022-08-22T09:04:20.781Z,2.22
2022-08-22T09:07:11.607Z,2.47
2022-08-22T09:13:12.370Z,2.13
2022-08-22T09:16:05.430Z,3.25
2022-08-22T09:18:57.228Z,3.42
2022-08-22T09:21:47.218Z,3.25
2022-08-22T09:24:52.624Z,2.88
2022-08-22T09:27:33.792Z,2.50
2022-08-22T09:30:11.619Z,2.40
2022-08-22T09:32:54.654Z,2.00
2022-08-22T09:35:29.532Z,2.30
2022-08-22T09:38:15.088Z,2.40
2022-08-22T09:40:15.240Z,2.10
2022-08-22T09:40:53.766Z,2.55
2022-08-22T09:46:08.545Z,2.75
2022-08-22T09:49:02.182Z,2.40
2022-08-22T09:51:39.867Z,2.00
2022-08-22T09:54:23.625Z,2.35
2022-08-22T09:57:16.838Z,2.80
2022-08-22T09:59:58.085Z,8.98
2022-08-22T10:02:36.100Z,25.85
2022-08-22T10:05:40.325Z,22.45
2022-08-22T10:08:12.928Z,14.52
2022-08-22T10:11:12.460Z,10.57
2022-08-22T10:13:57.801Z,9.93
2022-08-22T10:16:54.820Z,6.53
2022-08-22T10:19:29.857Z,4.88
2022-08-22T10:22:37.894Z,3.80
2022-08-22T10:25:21.602Z,2.83
2022-08-22T10:28:10.507Z,2.35
2022-08-22T10:33:19.263Z,2.50
2022-08-22T10:36:01.063Z,2.05
2022-08-22T10:38:44.004Z,1.70
2022-08-22T10:41:28.717Z,1.77
2022-08-22T10:44:08.772Z,2.05
2022-08-22T10:46:46.231Z,1.80
2022-08-22T10:49:22.615Z,1.70
2022-08-22T10:52:14.739Z,1.90
2022-08-22T10:54:49.566Z,1.92
2022-08-22T10:57:36.554Z,1.85
2022-08-22T11:00:14.622Z,1.70
2022-08-22T11:02:55.628Z,1.88
2022-08-22T11:05:50.178Z,1.58
2022-08-22T11:08:48.223Z,1.60
2022-08-22T11:11:37.918Z,1.75
2022-08-22T11:14:35.915Z,1.60
2022-08-22T11:17:31.017Z,1.60
2022-08-22T11:20:13.691Z,1.85
2022-08-22T11:22:55.746Z,2.22
2022-08-22T11:25:41.233Z,1.80
2022-08-22T11:28:31.955Z,2.13
2022-08-22T11:31:08.946Z,2.00
2022-08-22T11:33:47.229Z,2.17
2022-08-22T11:36:31.146Z,2.03
2022-08-22T11:39:24.663Z,2.58
2022-08-22T11:42:05.386Z,2.70
2022-08-22T11:44:50.514Z,2.85
2022-08-22T11:47:26.862Z,3.03
2022-08-22T11:50:02.465Z,2.30
2022-08-22T11:53:05.380Z,2.40
2022-08-22T11:55:42.053Z,2.50
2022-08-22T11:58:32.113Z,1.92
2022-08-22T12:01:06.063Z,2.05
2022-08-22T12:03:58.641Z,2.47
2022-08-22T12:06:42.339Z,2.00
2022-08-22T12:09:20.165Z,2.20
2022-08-22T12:12:01.442Z,2.13
2022-08-22T12:14:39.300Z,1.90
2022-08-22T12:17:55.780Z,1.85
2022-08-22T12:20:39.213Z,2.20
2022-08-22T12:23:48.588Z,1.80
2022-08-22T12:26:27.164Z,1.75
2022-08-22T12:29:15.480Z,1.55
2022-08-22T12:32:27.647Z,1.90
2022-08-22T12:35:15.934Z,1.83
2022-08-22T12:37:52.990Z,1.50
2022-08-22T12:40:36.442Z,1.70
2022-08-22T12:43:42.767Z,1.63
2022-08-22T12:46:28.769Z,1.50
2022-08-22T12:49:23.255Z,1.58
2022-08-22T12:52:04.419Z,1.63
2022-08-22T12:55:07.793Z,1.60
2022-08-22T12:57:43.087Z,1.48
2022-08-22T13:00:27.070Z,1.63
2022-08-22T13:03:02.209Z,1.40
2022-08-22T13:05:37.902Z,1.55
2022-08-22T13:08:13.976Z,1.45
2022-08-22T13:10:48.781Z,1.40
2022-08-22T13:13:31.605Z,1.63
2022-08-22T13:16:08.672Z,1.50
2022-08-22T13:18:47.121Z,1.63
2022-08-22T13:21:31.980Z,1.75
2022-08-22T13:24:10.443Z,1.60
2022-08-22T13:26:49.183Z,1.30
2022-08-22T13:29:26.121Z,1.40
2022-08-22T13:32:01.947Z,1.10
2022-08-22T13:34:40.192Z,1.50
2022-08-22T13:37:17.005Z,1.52
2022-08-22T13:39:49.192Z,1.40
2022-08-22T13:42:30.510Z,2.38
2022-08-22T13:45:04.651Z,1.80
2022-08-22T13:47:39.581Z,1.27
2022-08-22T13:50:15.226Z,1.23
2022-08-22T13:52:55.236Z,1.27
2022-08-22T13:55:35.366Z,1.77
2022-08-22T13:58:12.004Z,1.40
2022-08-22T14:01:17.529Z,1.27
2022-08-22T14:03:50.944Z,1.45
2022-08-22T14:06:35.313Z,1.15
2022-08-22T14:09:23.629Z,1.65
2022-08-22T14:12:13.793Z,1.30
2022-08-22T14:14:46.487Z,1.17
2022-08-22T14:17:21.512Z,1.40
2022-08-22T14:19:59.406Z,1.48
2022-08-22T14:22:34.823Z,1.35
2022-08-22T14:25:09.265Z,2.45
2022-08-22T14:27:44.012Z,1.60
2022-08-22T14:30:19.020Z,2.08
2022-08-22T14:32:52.466Z,1.45
2022-08-22T14:35:33.613Z,1.70
2022-08-22T14:38:27.131Z,1.33
2022-08-22T14:41:03.255Z,1.30
2022-08-22T14:43:57.033Z,1.20
2022-08-22T14:46:31.665Z,1.17
2022-08-22T14:49:28.870Z,1.20
2022-08-22T14:52:07.085Z,1.42
2022-08-22T14:54:38.237Z,1.17
2022-08-22T14:57:20.020Z,1.30
2022-08-22T14:59:52.689Z,1.40
2022-08-22T15:02:27.806Z,1.30
2022-08-22T15:04:57.571Z,1.30
2022-08-22T15:07:31.043Z,1.45
2022-08-22T15:10:03.691Z,1.48
2022-08-22T15:12:38.800Z,1.45
2022-08-22T15:15:12.148Z,1.70
2022-08-22T15:17:44.074Z,1.60
2022-08-22T15:20:28.070Z,1.60
2022-08-22T15:22:59.991Z,1.70
2022-08-22T15:25:33.410Z,1.58
2022-08-22T15:28:14.461Z,1.42
2022-08-22T15:30:54.066Z,1.60
2022-08-22T15:33:25.556Z,1.85
2022-08-22T15:36:07.745Z,1.70
2022-08-22T15:38:42.111Z,1.70
2022-08-22T15:41:42.159Z,1.50
2022-08-22T15:44:32.580Z,1.40
2022-08-22T15:47:10.810Z,1.70
2022-08-22T15:49:50.864Z,1.40
2022-08-22T15:52:27.216Z,1.83
2022-08-22T15:55:24.511Z,1.80
2022-08-22T15:58:06.697Z,1.65
2022-08-22T16:00:41.945Z,1.70
2022-08-22T16:03:25.034Z,1.50
2022-08-22T16:05:56.681Z,1.67
2022-08-22T16:08:33.311Z,1.90
2022-08-22T16:11:33.044Z,1.92
2022-08-22T16:14:25.321Z,1.77
2022-08-22T16:17:01.952Z,1.92
2022-08-22T16:19:31.476Z,2.33
2022-08-22T16:22:16.109Z,2.40
2022-08-22T16:25:03.148Z,2.22
2022-08-22T16:27:32.080Z,2.38
2022-08-22T16:30:16.137Z,2.13
2022-08-22T16:32:58.240Z,1.92
2022-08-22T16:36:03.725Z,1.77
2022-08-22T16:38:41.352Z,2.47
2022-08-22T16:41:35.713Z,2.80
2022-08-22T16:44:41.655Z,2.80
2022-08-22T16:47:14.495Z,2.63
2022-08-22T16:50:00.308Z,2.58
2022-08-22T16:53:06.725Z,2.20
2022-08-22T16:55:51.080Z,2.28
2022-08-22T16:58:59.124Z,2.33
2022-08-22T17:02:03.138Z,2.15
2022-08-22T17:04:41.393Z,2.45
2022-08-22T17:07:23.702Z,2.83
2022-08-22T17:10:23.672Z,2.70
2022-08-22T17:13:17.096Z,2.47
2022-08-22T17:16:01.518Z,2.53
2022-08-22T17:18:49.338Z,2.80
2022-08-22T17:21:26.033Z,2.67
2022-08-22T17:24:05.047Z,3.17
2022-08-22T17:26:49.088Z,3.08
2022-08-22T17:29:33.298Z,2.80
2022-08-22T17:32:15.631Z,2.90
2022-08-22T17:34:53.916Z,2.95
2022-08-22T17:37:27.361Z,2.70
2022-08-22T17:40:15.696Z,2.80
2022-08-22T17:43:01.837Z,2.67
2022-08-22T17:45:42.408Z,3.40
2022-08-22T17:48:19.314Z,3.33
2022-08-22T17:50:54.228Z,3.92
2022-08-22T17:53:38.662Z,3.72
2022-08-22T17:56:19.396Z,5.25
2022-08-22T17:58:55.402Z,3.70
2022-08-22T18:01:40.535Z,2.90
2022-08-22T18:04:17.951Z,2.63
2022-08-22T18:06:56.376Z,2.92
2022-08-22T18:09:34.751Z,2.72
2022-08-22T18:12:16.251Z,3.03
2022-08-22T18:14:53.186Z,2.40
2022-08-22T18:17:29.086Z,2.22
2022-08-22T18:20:08.047Z,2.58
2022-08-22T18:22:45.517Z,2.60
2022-08-22T18:25:34.006Z,2.20
2022-08-22T18:28:11.101Z,2.05
2022-08-22T18:30:53.263Z,2.50
2022-08-22T18:33:31.052Z,2.28
2022-08-22T18:36:10.226Z,2.30
2022-08-22T18:38:50.084Z,2.35
2022-08-22T18:41:27.648Z,2.10
2022-08-22T18:44:00.169Z,1.92
2022-08-22T18:46:47.050Z,1.88
2022-08-22T18:49:54.118Z,1.80
2022-08-22T18:52:35.617Z,2.08
2022-08-22T18:55:33.681Z,1.77
2022-08-22T18:58:16.152Z,1.60
2022-08-22T19:01:00.224Z,1.58
2022-08-22T19:03:41.821Z,1.70
2022-08-22T19:06:36.857Z,1.55
2022-08-22T19:09:25.497Z,1.73
2022-08-22T19:12:04.020Z,1.48
2022-08-22T19:14:50.872Z,1.85
2022-08-22T19:17:40.494Z,1.80
2022-08-22T19:20:32.034Z,1.98
2022-08-22T19:23:41.858Z,2.00
2022-08-22T19:26:27.847Z,1.85
2022-08-22T19:28:59.716Z,1.95
2022-08-22T19:31:45.784Z,2.28
2022-08-22T19:34:28.379Z,2.15
2022-08-22T19:37:32.861Z,1.80
2022-08-22T19:40:05.315Z,2.22
2022-08-22T19:42:36.962Z,2.70
2022-08-22T19:45:19.977Z,2.30
2022-08-22T19:47:58.051Z,2.65
2022-08-22T19:50:33.172Z,2.10
2022-08-22T19:53:28.803Z,2.67
2022-08-22T19:56:09.378Z,2.10
2022-08-22T19:58:50.669Z,2.55
2022-08-22T20:01:40.292Z,2.13
2022-08-22T20:04:20.673Z,2.47
2022-08-22T20:07:02.832Z,2.60
2022-08-22T20:09:44.023Z,2.55
2022-08-22T20:12:17.514Z,2.05
2022-08-22T20:14:48.668Z,2.35
2022-08-22T20:17:40.395Z,2.28
2022-08-22T20:20:17.426Z,2.40
2022-08-22T20:22:52.678Z,2.50
2022-08-22T20:25:42.806Z,3.08
2022-08-22T20:28:29.801Z,3.05
2022-08-22T20:31:01.004Z,3.15
2022-08-22T20:33:32.790Z,3.20
2022-08-22T20:36:05.336Z,2.55
2022-08-22T20:38:39.675Z,3.08
2022-08-22T20:41:20.852Z,3.50
2022-08-22T20:43:53.151Z,2.90
2022-08-22T20:46:33.334Z,2.88
2022-08-22T20:49:02.549Z,3.28
2022-08-22T20:56:52.946Z,3.13
2022-08-22T20:59:31.994Z,2.90
2022-08-22T21:02:11.979Z,2.70
2022-08-22T21:04:48.238Z,3.53
2022-08-22T21:07:23.668Z,2.78
2022-08-22T21:10:22.487Z,3.25
2022-08-22T21:13:20.856Z,3.03
2022-08-22T21:15:51.288Z,3.17
2022-08-22T21:18:29.871Z,3.10
2022-08-22T21:21:12.420Z,3.33
2022-08-22T21:23:48.689Z,3.10
2022-08-22T21:26:26.192Z,3.03
2022-08-22T21:28:58.503Z,2.97
2022-08-22T21:31:29.789Z,3.95
2022-08-22T21:33:59.301Z,3.55
2022-08-22T21:36:30.023Z,3.58
2022-08-22T21:39:01.656Z,4.38
2022-08-22T21:41:39.607Z,4.10
2022-08-22T21:44:36.261Z,4.38
2022-08-22T21:47:30.231Z,4.00
2022-08-22T21:50:06.782Z,3.70
2022-08-22T21:52:37.575Z,3.50
2022-08-22T21:55:26.661Z,3.67
2022-08-22T22:00:49.725Z,4.00
2022-08-22T22:03:20.475Z,3.78
2022-08-22T22:05:50.228Z,4.22
2022-08-22T22:08:19.320Z,4.22
2022-08-22T22:13:20.418Z,4.30
2022-08-22T22:15:53.717Z,4.60
2022-08-22T22:18:25.130Z,4.28
2022-08-22T22:20:55.727Z,3.85
2022-08-22T22:23:25.208Z,4.43
2022-08-22T22:25:54.586Z,4.13
2022-08-22T22:28:26.674Z,4.25
2022-08-22T22:30:55.030Z,4.00
2022-08-22T22:33:25.904Z,5.30
2022-08-22T22:35:56.083Z,4.45
2022-08-22T22:38:24.726Z,4.70
2022-08-22T22:40:52.988Z,5.25
2022-08-22T22:43:21.343Z,5.30
2022-08-22T22:45:50.996Z,5.17
2022-08-22T22:48:24.277Z,6.25
2022-08-22T22:50:53.725Z,5.47
2022-08-22T22:53:33.774Z,5.65
2022-08-22T22:56:09.219Z,5.63
2022-08-22T22:58:38.989Z,4.97
2022-08-22T23:01:13.525Z,5.65
2022-08-22T23:03:42.611Z,5.97
2022-08-22T23:06:13.715Z,5.57
2022-08-22T23:08:42.512Z,5.85
2022-08-22T23:11:13.092Z,5.88
2022-08-22T23:13:43.069Z,6.28
2022-08-22T23:16:16.229Z,5.70
2022-08-22T23:18:44.836Z,6.45
2022-08-22T23:21:16.104Z,6.45
2022-08-22T23:23:45.184Z,6.25
2022-08-22T23:26:14.182Z,5.78
2022-08-22T23:28:42.763Z,6.60
2022-08-22T23:31:15.121Z,6.07
2022-08-22T23:33:44.774Z,7.38
2022-08-22T23:36:14.938Z,7.07
2022-08-22T23:38:43.668Z,7.03
2022-08-22T23:41:13.818Z,6.40
2022-08-22T23:43:43.402Z,6.68
2022-08-22T23:46:14.274Z,6.40
2022-08-22T23:48:42.892Z,6.53
2022-08-22T23:51:11.982Z,6.43
2022-08-22T23:53:40.411Z,6.22
2022-08-22T23:56:19.568Z,7.32
2022-08-22T23:58:49.070Z,7.13
